Time;durP1;ratioP1;P1;durP2;ratioP2;P2;SDS_P1;SDS_P2;PMS_P1;PMS_P2;Temp;Humidity;BMP_temperature;BMP_pressure;BME280_temperature;BME280_humidity;BME280_pressure;Samples;Min_cycle;Max_cycle;Signal;HPM_P1;HPM_P2
2021/06/01 00:01:41;;;;;;;6.53;2.92;;;;;;;12.30;100.00;100712.21;1457257;98;21082;-84
2021/06/01 00:04:10;;;;;;;8.68;3.47;;;;;;;12.35;100.00;100709.49;1457170;98;21117;-85
2021/06/01 00:06:36;;;;;;;5.35;3.00;;;;;;;12.31;100.00;100709.77;1457253;98;21558;-83
2021/06/01 00:09:06;;;;;;;8.98;3.17;;;;;;;12.36;100.00;100706.28;1457103;97;21685;-84
2021/06/01 00:11:33;;;;;;;10.65;3.70;;;;;;;12.44;100.00;100705.72;1456157;96;21149;-83
2021/06/01 00:13:59;;;;;;;7.37;3.58;;;;;;;12.28;100.00;100707.61;1490524;92;21163;-83
2021/06/01 00:16:25;;;;;;;6.47;3.42;;;;;;;12.34;100.00;100702.48;1554396;92;21641;-83
2021/06/01 00:18:51;;;;;;;9.90;4.03;;;;;;;12.44;100.00;100698.97;1569480;89;22116;-84
2021/06/01 00:21:18;;;;;;;7.92;3.55;;;;;;;12.41;100.00;100704.91;1601754;89;21675;-84
2021/06/01 00:23:44;;;;;;;8.58;4.20;;;;;;;12.38;100.00;100700.04;1601575;89;21072;-83
2021/06/01 00:26:12;;;;;;;9.63;3.62;;;;;;;12.30;100.00;100703.30;1601543;88;21124;-83
2021/06/01 00:28:40;;;;;;;8.28;4.05;;;;;;;12.30;100.00;100700.05;1601861;88;21155;-84
2021/06/01 00:31:07;;;;;;;10.03;3.55;;;;;;;12.29;100.00;100698.41;1601544;89;21482;-83
2021/06/01 00:33:34;;;;;;;9.78;3.72;;;;;;;12.32;100.00;100691.66;1601612;89;21097;-84
2021/06/01 00:36:00;;;;;;;9.60;3.95;;;;;;;12.32;100.00;100690.31;1632275;86;21027;-83
2021/06/01 00:38:26;;;;;;;8.95;3.90;;;;;;;12.35;100.00;100684.37;1646079;87;21059;-83
2021/06/01 00:40:53;;;;;;;10.48;4.35;;;;;;;12.24;100.00;100684.37;1646099;87;21169;-83
2021/06/01 00:43:20;;;;;;;9.23;4.25;;;;;;;12.30;100.00;100687.09;1646123;87;20998;-85
2021/06/01 00:45:46;;;;;;;10.08;4.22;;;;;;;12.28;100.00;100688.15;1646026;87;21038;-84
2021/06/01 00:48:12;;;;;;;12.30;4.58;;;;;;;12.24;100.00;100679.52;1645894;87;21681;-83
2021/06/01 00:50:39;;;;;;;13.30;4.58;;;;;;;12.21;100.00;100688.16;1645880;87;21585;-84
2021/06/01 00:53:07;;;;;;;15.80;5.17;;;;;;;12.17;100.00;100685.16;1645706;87;21917;-84
2021/06/01 00:55:33;;;;;;;9.10;4.30;;;;;;;12.11;100.00;100688.93;1646066;87;21118;-84
2021/06/01 00:57:59;;;;;;;14.90;4.65;;;;;;;12.21;100.00;100684.10;1629000;87;21046;-85
2021/06/01 01:02:54;;;;;;;12.13;4.92;;;;;;;12.10;100.00;100686.52;1646145;87;21075;-85
2021/06/01 01:05:21;;;;;;;12.07;5.15;;;;;;;12.11;100.00;100686.23;1645894;86;21167;-84
2021/06/01 01:08:08;;;;;;;15.28;5.05;;;;;;;11.97;100.00;100689.17;1629778;87;21145;-86
2021/06/01 01:10:37;;;;;;;13.03;4.95;;;;;;;12.08;100.00;100685.41;1648820;85;21090;-86
2021/06/01 01:13:06;;;;;;;12.15;4.90;;;;;;;12.00;100.00;100686.77;1681535;85;21627;-84
2021/06/01 01:15:35;;;;;;;11.95;5.10;;;;;;;11.91;100.00;100688.89;1681613;84;21081;-86
2021/06/01 01:18:08;;;;;;;14.83;5.70;;;;;;;11.94;100.00;100683.78;1681489;84;21141;-86
2021/06/01 01:21:00;;;;;;;13.18;5.00;;;;;;;11.81;100.00;100690.99;1681720;85;21093;-86
2021/06/01 01:23:32;;;;;;;12.90;5.78;;;;;;;11.68;100.00;100687.45;1680431;85;21026;-87
2021/06/01 01:26:22;;;;;;;13.80;5.50;;;;;;;11.75;100.00;100687.47;1677291;85;21046;-87
2021/06/01 01:29:17;;;;;;;15.88;6.00;;;;;;;11.85;100.00;100677.25;1680816;85;21037;-87
2021/06/01 01:31:53;;;;;;;16.07;6.05;;;;;;;11.81;100.00;100687.75;1681630;85;21106;-86
2021/06/01 01:34:21;;;;;;;14.20;5.83;;;;;;;11.75;100.00;100683.95;1681725;85;21038;-86
2021/06/01 01:36:48;;;;;;;15.05;5.60;;;;;;;11.67;100.00;100683.92;1681410;84;21613;-86
2021/06/01 01:39:15;;;;;;;15.30;6.17;;;;;;;11.59;100.00;100677.16;1681624;85;21121;-86
2021/06/01 01:41:43;;;;;;;20.08;5.75;;;;;;;11.63;100.00;100677.98;1681503;85;21125;-87
2021/06/01 01:44:12;;;;;;;13.35;5.37;;;;;;;11.58;100.00;100674.72;1681641;85;21126;-86
2021/06/01 01:49:15;;;;;;;12.10;5.90;;;;;;;11.59;100.00;100673.11;1602925;89;21170;-86
2021/06/01 01:51:48;;;;;;;10.28;5.50;;;;;;;11.63;100.00;100669.34;1602765;88;21076;-87
2021/06/01 01:54:23;;;;;;;18.80;5.83;;;;;;;11.53;100.00;100668.78;1603016;89;26539;-87
2021/06/01 01:56:54;;;;;;;16.57;5.28;;;;;;;11.46;100.00;100665.49;1600482;89;21142;-87
2021/06/01 02:01:13;;;;;;;16.12;5.83;;;;;;;;;;1784296;79;26306;-89
2021/06/01 02:03:39;;;;;;;12.70;6.17;;;;;;;;;;1740714;81;21746;-89
2021/06/01 02:06:05;;;;;;;13.32;5.70;;;;;;;;;;1730728;82;21689;-92
2021/06/01 02:08:31;;;;;;;11.45;5.17;;;;;;;;;;1723888;82;20847;-90
2021/06/01 02:10:56;;;;;;;13.05;5.60;;;;;;;;;;1723431;82;21002;-90
2021/06/01 02:13:22;;;;;;;15.05;6.20;;;;;;;;;;1724025;82;21417;-87
2021/06/01 02:15:48;;;;;;;14.50;5.62;;;;;;;;;;1725315;81;21013;-87
2021/06/01 02:18:13;;;;;;;13.30;5.85;;;;;;;;;;1715793;82;21406;-89
2021/06/01 02:20:40;;;;;;;11.43;5.78;;;;;;;;;;1733020;82;20982;-89
2021/06/01 02:26:01;;;;;;;12.75;5.42;;;;;;;;;;1736265;80;21152;-88
2021/06/01 02:28:33;;;;;;;13.15;5.03;;;;;;;;;;1733986;81;21076;-92
2021/06/01 02:31:05;;;;;;;11.12;4.87;;;;;;;;;;1674515;84;21136;-89
2021/06/01 02:33:32;;;;;;;11.95;4.92;;;;;;;;;;1669206;85;21147;-90
2021/06/01 02:36:00;;;;;;;10.72;4.50;;;;;;;;;;1677103;84;21572;-91
2021/06/01 02:38:27;;;;;;;11.20;4.95;;;;;;;;;;1630604;86;21137;-94
2021/06/01 02:40:53;;;;;;;13.60;4.80;;;;;;;;;;1665342;84;21061;-90
2021/06/01 02:43:19;;;;;;;13.50;4.47;;;;;;;;;;1672798;83;21049;-91
2021/06/01 02:45:45;;;;;;;14.75;5.12;;;;;;;;;;1674141;85;21065;-90
2021/06/01 02:48:13;;;;;;;10.05;4.40;;;;;;;;;;1670377;85;21002;-92
2021/06/01 02:50:40;;;;;;;13.88;4.75;;;;;;;;;;1667403;84;21101;-91
2021/06/01 02:53:08;;;;;;;10.65;4.17;;;;;;;;;;1676910;84;21050;-93
2021/06/01 02:55:33;;;;;;;9.55;3.70;;;;;;;;;;1669349;85;21142;-92
2021/06/01 02:58:00;;;;;;;12.03;4.22;;;;;;;;;;1673565;83;20927;-94
2021/06/01 03:00:26;;;;;;;10.55;3.85;;;;;;;;;;1652854;85;21073;-93
2021/06/01 03:02:53;;;;;;;8.93;3.47;;;;;;;;;;1677717;84;21615;-93
2021/06/01 03:05:19;;;;;;;9.80;3.90;;;;;;;;;;1674359;83;21652;-92
2021/06/01 03:07:52;;;;;;;10.90;3.60;;;;;;;;;;1671330;85;21152;-92
2021/06/01 03:10:19;;;;;;;8.70;3.60;;;;;;;;;;1673686;84;21030;-94
2021/06/01 03:12:57;;;;;;;8.53;3.67;;;;;;;;;;1677232;83;21615;-92
2021/06/01 03:15:21;;;;;;;7.03;3.17;;;;;;;;;;1666575;85;21797;-93
2021/06/01 03:17:45;;;;;;;8.93;4.12;;;;;;;;;;1671327;84;21080;-95
2021/06/01 03:20:12;;;;;;;10.70;3.60;;;;;;;;;;1673695;84;21684;-91
2021/06/01 03:22:38;;;;;;;11.70;3.40;;;;;;;;;;1677133;84;21033;-91
2021/06/01 03:25:04;;;;;;;9.15;3.40;;;;;;;;;;1674297;84;21009;-92
2021/06/01 03:27:33;;;;;;;12.47;4.12;;;;;;;;;;1686881;83;21581;-91
2021/06/01 03:29:59;;;;;;;9.20;4.03;;;;;;;;;;1685843;83;21071;-93
2021/06/01 03:32:24;;;;;;;8.45;3.45;;;;;;;;;;1683723;84;21030;-93
2021/06/01 03:34:50;;;;;;;10.72;3.87;;;;;;;;;;1685459;83;20870;-94
2021/06/01 03:37:16;;;;;;;10.23;3.40;;;;;;;;;;1694739;83;20968;-95
2021/06/01 03:39:42;;;;;;;8.18;3.33;;;;;;;;;;1678237;84;21459;-91
2021/06/01 03:42:11;;;;;;;12.33;3.83;;;;;;;;;;1674843;84;21015;-90
2021/06/01 03:44:35;;;;;;;16.85;4.55;;;;;;;;;;1675693;83;21637;-90
2021/06/01 03:47:00;;;;;;;7.62;3.40;;;;;;;;;;1699269;83;20916;-90
2021/06/01 03:49:26;;;;;;;16.02;4.42;;;;;;;;;;1687552;83;20945;-89
2021/06/01 03:51:51;;;;;;;8.73;3.55;;;;;;;;;;1696319;84;20905;-90
2021/06/01 03:54:17;;;;;;;10.68;4.05;;;;;;;;;;1689707;84;20955;-91
2021/06/01 03:56:43;;;;;;;12.65;4.47;;;;;;;;;;1695019;82;20996;-89
2021/06/01 03:59:08;;;;;;;9.38;3.65;;;;;;;;;;1676375;83;21025;-89
2021/06/01 04:01:34;;;;;;;13.88;4.25;;;;;;;;;;1684148;83;21031;-89
2021/06/01 04:04:00;;;;;;;13.53;3.85;;;;;;;;;;1688817;83;20907;-90
2021/06/01 04:06:25;;;;;;;12.78;4.15;;;;;;;;;;1686176;82;21011;-89
2021/06/01 04:08:51;;;;;;;8.93;4.12;;;;;;;;;;1724081;81;21117;-86
2021/06/01 04:11:16;;;;;;;11.08;3.67;;;;;;;;;;1726643;82;20966;-88
2021/06/01 04:13:42;;;;;;;8.98;4.47;;;;;;;;;;1736730;82;20910;-88
2021/06/01 04:16:08;;;;;;;9.50;3.77;;;;;;;;;;1730204;82;21508;-88
2021/06/01 04:18:33;;;;;;;11.80;4.45;;;;;;;;;;1736000;80;20934;-86
2021/06/01 04:21:00;;;;;;;10.03;4.53;;;;;;;;;;1736746;81;21032;-91
2021/06/01 04:23:26;;;;;;;13.03;4.80;;;;;;;;;;1735921;82;21081;-88
2021/06/01 04:25:52;;;;;;;14.35;4.78;;;;;;;;;;1734029;82;21081;-88
2021/06/01 04:28:17;;;;;;;12.60;3.90;;;;;;;;;;1733244;82;20954;-88
2021/06/01 04:30:44;;;;;;;12.28;4.53;;;;;;;;;;1738757;82;21473;-87
2021/06/01 04:33:11;;;;;;;12.70;4.60;;;;;;;;;;1737255;81;21133;-86
2021/06/01 04:35:38;;;;;;;12.30;4.28;;;;;;;;;;1730913;81;21057;-87
2021/06/01 04:38:04;;;;;;;10.58;4.30;;;;;;;;;;1732151;82;21030;-86
2021/06/01 04:40:30;;;;;;;10.15;4.00;;;;;;;;;;1736583;80;20961;-86
2021/06/01 04:42:55;;;;;;;13.83;4.60;;;;;;;;;;1736090;81;21520;-85
2021/06/01 04:45:21;;;;;;;11.28;4.33;;;;;;;;;;1735387;82;21025;-87
2021/06/01 04:47:47;;;;;;;11.33;4.42;;;;;;;;;;1735740;82;20902;-85
2021/06/01 04:52:11;;;;;;;12.40;4.37;;;;;;;11.34;100.00;100611.75;1834622;77;25680;-86
2021/06/01 04:54:37;;;;;;;11.48;4.67;;;;;;;11.30;100.00;100612.02;1765325;80;21042;-87
2021/06/01 04:57:06;;;;;;;12.90;4.20;;;;;;;11.22;100.00;100609.82;1773652;80;21065;-84
2021/06/01 04:59:32;;;;;;;14.15;4.08;;;;;;;11.13;100.00;100606.01;1761811;80;21018;-89
2021/06/01 05:01:58;;;;;;;12.65;4.28;;;;;;;11.23;100.00;100603.88;1758612;80;21112;-86
2021/06/01 05:04:24;;;;;;;12.63;4.20;;;;;;;11.18;100.00;100601.99;1752027;80;20898;-86
2021/06/01 05:06:50;;;;;;;14.05;4.67;;;;;;;11.16;100.00;100596.04;1756588;80;20997;-86
2021/06/01 05:09:16;;;;;;;11.38;4.15;;;;;;;11.14;100.00;100598.18;1753813;80;21018;-90
2021/06/01 05:11:42;;;;;;;10.65;4.10;;;;;;;11.10;100.00;100595.75;1756263;80;21033;-86
2021/06/01 05:14:11;;;;;;;10.72;4.30;;;;;;;11.29;100.00;100596.89;1767739;80;20978;-87
2021/06/01 05:16:35;;;;;;;13.22;4.60;;;;;;;11.24;100.00;100594.73;1762570;80;21025;-86
2021/06/01 05:19:01;;;;;;;8.33;3.17;;;;;;;11.20;100.00;100599.82;1757340;80;20891;-86
2021/06/01 05:21:27;;;;;;;13.05;4.30;;;;;;;11.14;100.00;100598.98;1757583;80;21055;-87
2021/06/01 05:23:53;;;;;;;14.10;4.40;;;;;;;11.24;100.00;100610.92;1748230;80;20848;-86
2021/06/01 05:26:19;;;;;;;8.93;4.35;;;;;;;11.24;100.00;100609.03;1770129;80;21835;-87
2021/06/01 05:28:45;;;;;;;15.28;4.25;;;;;;;11.26;100.00;100604.70;1764188;80;21308;-86
2021/06/01 05:33:53;;;;;;;12.23;3.67;;;;;;;11.37;100.00;100606.37;1754379;80;21104;-86
2021/06/01 05:36:17;;;;;;;11.43;4.17;;;;;;;11.28;100.00;100603.91;1769066;80;20962;-87
2021/06/01 05:38:43;;;;;;;11.20;4.15;;;;;;;11.25;100.00;100599.84;1753654;80;21215;-85
2021/06/01 05:41:09;;;;;;;9.30;3.75;;;;;;;11.31;100.00;100600.69;1757185;80;21046;-87
2021/06/01 05:43:36;;;;;;;10.08;3.50;;;;;;;11.33;100.00;100600.70;1755320;80;21506;-86
2021/06/01 05:46:02;;;;;;;8.55;3.80;;;;;;;11.47;100.00;100594.78;1753727;80;21162;-85
2021/06/01 05:48:28;;;;;;;11.55;3.60;;;;;;;11.42;100.00;100591.55;1767172;80;20885;-89
2021/06/01 05:50:56;;;;;;;8.70;3.67;;;;;;;11.46;100.00;100598.03;1758590;80;20882;-88
2021/06/01 05:53:24;;;;;;;9.75;3.85;;;;;;;11.53;100.00;100593.72;1771349;78;21703;-88
2021/06/01 05:55:53;;;;;;;6.78;3.15;;;;;;;11.54;100.00;100608.86;1770947;80;21095;-88
2021/06/01 05:58:19;;;;;;;7.30;3.25;;;;;;;11.49;100.00;100617.73;1768936;80;21141;-88
2021/06/01 06:00:45;;;;;;;7.15;3.60;;;;;;;11.52;100.00;100604.25;1759826;78;21049;-90
2021/06/01 06:03:14;;;;;;;7.22;3.35;;;;;;;11.59;100.00;100609.69;1768476;78;21563;-90
2021/06/01 06:06:10;;;;;;;;;;;;;;;;;;;;;
2021/06/01 06:08:31;;;;;;;7.08;3.00;;;;;;;11.52;100.00;100607.76;1575344;90;21636;-91
2021/06/01 06:10:57;;;;;;;10.93;3.50;;;;;;;11.39;100.00;100586.69;1569924;88;21114;-88
2021/06/01 06:13:23;;;;;;;8.50;3.83;;;;;;;11.51;100.00;100602.64;1570657;90;20925;-88
2021/06/01 06:15:49;;;;;;;11.75;3.60;;;;;;;11.60;100.00;100605.09;1581585;88;21734;-88
2021/06/01 06:21:11;;;;;;;7.10;3.40;;;;;;;11.60;100.00;100619.94;1485884;94;21113;-89
2021/06/01 06:23:41;;;;;;;9.65;3.22;;;;;;;11.57;100.00;100606.44;1484048;95;21175;-89
2021/06/01 06:26:08;;;;;;;9.05;3.45;;;;;;;11.64;100.00;100599.97;1485494;94;21273;-89
2021/06/01 06:28:34;;;;;;;10.35;3.30;;;;;;;11.65;100.00;100613.21;1479587;95;21052;-90
2021/06/01 06:31:01;;;;;;;10.63;3.52;;;;;;;11.80;100.00;100601.09;1492836;94;21124;-89
2021/06/01 06:33:27;;;;;;;7.42;3.58;;;;;;;11.73;100.00;100606.46;1489652;95;21039;-89
2021/06/01 06:35:54;;;;;;;8.65;3.45;;;;;;;11.87;100.00;100610.84;1485629;95;21132;-88
2021/06/01 06:38:20;;;;;;;9.50;3.35;;;;;;;11.93;100.00;100615.17;1486528;95;21186;-87
2021/06/01 06:41:00;;;;;;;7.53;3.50;;;;;;;12.15;100.00;100613.59;1494293;95;21192;-87
2021/06/01 06:43:17;;;;;;;6.47;3.40;;;;;;;12.30;100.00;100601.42;1478914;95;21298;-88
2021/06/01 06:45:47;;;;;;;8.45;3.75;;;;;;;12.28;100.00;100613.84;1509736;93;21258;-87
2021/06/01 06:48:13;;;;;;;13.25;3.92;;;;;;;12.48;100.00;100603.56;1504157;92;21187;-92
2021/06/01 06:50:39;;;;;;;10.70;3.10;;;;;;;12.46;100.00;100603.02;1510547;94;21648;-88
2021/06/01 06:53:05;;;;;;;7.55;3.02;;;;;;;12.03;100.00;100614.66;1489248;94;21132;-87
2021/06/01 06:55:33;;;;;;;7.70;3.30;;;;;;;11.93;100.00;100609.77;1515897;93;21171;-89
2021/06/01 06:57:59;;;;;;;10.18;3.42;;;;;;;11.89;100.00;100614.91;1522055;89;21191;-90
2021/06/01 07:00:26;;;;;;;7.00;3.50;;;;;;;11.91;100.00;100622.20;1580866;89;21672;-90
2021/06/01 07:02:52;;;;;;;7.85;3.27;;;;;;;11.86;100.00;100611.39;1586579;89;21628;-89
2021/06/01 07:05:20;;;;;;;10.40;4.35;;;;;;;11.80;100.00;100611.08;1645248;86;21105;-87
2021/06/01 07:07:51;;;;;;;8.23;3.37;;;;;;;11.93;100.00;100604.38;1652230;86;21117;-89
2021/06/01 07:10:19;;;;;;;11.97;4.28;;;;;;;11.97;100.00;100610.33;1639990;86;21319;-88
2021/06/01 07:12:45;;;;;;;8.73;3.50;;;;;;;11.81;100.00;100597.84;1638625;85;21330;-92
2021/06/01 07:15:26;;;;;;;11.03;4.67;;;;;;;11.73;100.00;100593.77;1640273;86;21716;-90
2021/06/01 07:17:58;;;;;;;13.62;4.33;;;;;;;11.76;100.00;100587.83;1686538;80;21503;-86
2021/06/01 07:20:29;;;;;;;9.30;4.17;;;;;;;11.76;100.00;100593.23;1760735;80;21479;-92
2021/06/01 07:22:52;;;;;;;14.85;4.97;;;;;;;11.75;100.00;100598.91;1773021;80;20992;-91
2021/06/01 07:25:18;;;;;;;11.57;3.80;;;;;;;11.69;100.00;100579.73;1747627;80;21055;-90
2021/06/01 07:30:39;;;;;;;10.90;4.45;;;;;;;11.76;100.00;100585.67;1872126;75;26043;-89
2021/06/01 07:33:05;;;;;;;17.60;4.37;;;;;;;11.64;100.00;100589.98;1820891;76;20967;-88
2021/06/01 07:35:32;;;;;;;10.43;4.20;;;;;;;11.74;100.00;100587.31;1817180;77;21787;-86
2021/06/01 07:37:58;;;;;;;17.00;4.67;;;;;;;11.73;100.00;100595.12;1808121;77;21061;-87
2021/06/01 07:40:25;;;;;;;11.55;4.40;;;;;;;11.70;100.00;100590.80;1805117;77;21054;-84
2021/06/01 07:42:51;;;;;;;9.83;4.22;;;;;;;11.67;100.00;100594.84;1834755;77;21096;-88
2021/06/01 07:45:17;;;;;;;16.40;4.78;;;;;;;11.57;100.00;100594.83;1809683;77;21086;-86
2021/06/01 07:47:43;;;;;;;11.95;3.90;;;;;;;11.55;100.00;100595.08;1808636;76;21076;-86
2021/06/01 07:50:11;;;;;;;10.18;3.65;;;;;;;11.50;100.00;100587.00;1818862;77;20855;-91
2021/06/01 07:52:37;;;;;;;15.15;4.33;;;;;;;11.50;100.00;100590.20;1829046;77;21109;-89
2021/06/01 07:55:04;;;;;;;11.30;3.95;;;;;;;11.52;100.00;100584.02;1825337;76;20854;-90
2021/06/01 07:57:30;;;;;;;8.85;3.80;;;;;;;11.60;100.00;100588.90;1805120;77;21013;-89
2021/06/01 07:59:56;;;;;;;10.78;4.30;;;;;;;11.45;100.00;100588.87;1844627;77;21048;-90
2021/06/01 08:02:24;;;;;;;10.35;3.90;;;;;;;11.45;100.00;100588.32;1821458;76;20941;-90
2021/06/01 08:04:53;;;;;;;13.55;4.50;;;;;;;11.49;100.00;100591.30;1836342;77;21572;-90
2021/06/01 08:07:20;;;;;;;11.63;4.20;;;;;;;11.51;100.00;100587.80;1811757;77;21060;-91
2021/06/01 08:09:48;;;;;;;10.82;3.58;;;;;;;11.43;100.00;100594.52;1815718;77;21600;-92
2021/06/01 08:12:14;;;;;;;11.05;4.00;;;;;;;11.38;100.00;100576.95;1820334;77;21160;-91
2021/06/01 08:14:40;;;;;;;10.35;4.33;;;;;;;11.45;100.00;100575.38;1832505;77;20832;-89
2021/06/01 08:17:06;;;;;;;15.88;4.58;;;;;;;11.50;100.00;100575.36;1815975;77;22426;-87
2021/06/01 08:19:36;;;;;;;8.05;3.95;;;;;;;11.50;100.00;100572.16;1809414;77;20973;-93
2021/06/01 08:22:03;;;;;;;8.45;4.03;;;;;;;11.41;100.00;100579.66;1822793;77;21083;-92
2021/06/01 08:24:28;;;;;;;12.13;4.12;;;;;;;11.39;100.00;100579.94;1819187;77;21577;-90
2021/06/01 08:26:54;;;;;;;9.53;3.77;;;;;;;11.48;100.00;100574.84;1810619;77;21034;-93
2021/06/01 08:29:24;;;;;;;10.55;4.15;;;;;;;11.49;100.00;100571.86;1830352;76;20891;-90
2021/06/01 08:31:50;;;;;;;15.85;4.65;;;;;;;11.49;100.00;100573.20;1824566;76;21619;-91
2021/06/01 08:34:16;;;;;;;8.55;4.10;;;;;;;11.56;100.00;100571.08;1805500;77;20881;-93
2021/06/01 08:36:42;;;;;;;13.62;4.03;;;;;;;11.51;100.00;100574.30;1809133;77;21830;-91
2021/06/01 08:39:10;;;;;;;16.05;4.75;;;;;;;11.52;100.00;100575.38;1833850;77;21029;-91
2021/06/01 08:41:38;;;;;;;15.23;5.12;;;;;;;11.73;100.00;100561.91;1817339;77;20996;-91
2021/06/01 08:44:06;;;;;;;18.45;5.05;;;;;;;11.67;100.00;100569.73;1828294;77;21018;-89
2021/06/01 08:46:33;;;;;;;10.10;4.05;;;;;;;11.67;100.00;100566.50;1809995;77;21029;-90
2021/06/01 08:48:59;;;;;;;12.45;4.17;;;;;;;11.63;100.00;100564.61;1832409;77;21042;-92
2021/06/01 08:51:27;;;;;;;9.88;4.12;;;;;;;11.68;100.00;100574.89;1842932;77;20843;-92
2021/06/01 08:53:57;;;;;;;10.60;4.65;;;;;;;11.68;100.00;100551.14;1847917;76;20990;-91
2021/06/01 08:56:23;;;;;;;8.63;4.10;;;;;;;11.76;100.00;100555.44;1811201;76;21072;-89
2021/06/01 08:58:50;;;;;;;10.55;4.08;;;;;;;11.72;100.00;100550.31;1797041;77;21060;-91
2021/06/01 09:01:19;;;;;;;12.80;4.67;;;;;;;11.74;100.00;100549.52;1790788;77;21740;-90
2021/06/01 09:03:54;;;;;;;15.53;4.92;;;;;;;11.76;100.00;100553.28;1809117;76;21566;-91
2021/06/01 09:06:26;;;;;;;9.35;3.95;;;;;;;11.85;100.00;100546.80;1841544;77;21587;-91
2021/06/01 09:21:52;;;;;;;10.88;4.55;;;;;;;11.93;100.00;100536.86;1753873;80;21021;-91
2021/06/01 09:24:17;;;;;;;13.28;4.70;;;;;;;11.93;100.00;100538.20;1717919;83;20898;-90
2021/06/01 09:32:16;;;;;;;14.50;5.55;;;;;;;12.01;100.00;100538.48;1567447;91;21160;-88
2021/06/01 09:34:49;;;;;;;14.45;5.53;;;;;;;12.01;100.00;100537.67;1567484;91;21598;-87
2021/06/01 09:37:27;;;;;;;11.93;5.50;;;;;;;12.17;100.00;100539.27;1567869;91;21079;-89
2021/06/01 09:40:18;;;;;;;12.30;4.92;;;;;;;12.18;100.00;100535.50;1567773;91;21135;-89
2021/06/01 09:42:51;;;;;;;14.45;5.70;;;;;;;12.08;100.00;100542.25;1567655;91;21109;-87
2021/06/01 09:45:23;;;;;;;12.18;4.85;;;;;;;12.25;100.00;100540.62;1567869;91;21075;-87
2021/06/01 09:47:58;;;;;;;11.85;5.03;;;;;;;12.02;100.00;100539.28;1567753;91;21261;-87
2021/06/01 09:50:52;;;;;;;11.35;5.42;;;;;;;12.02;100.00;100548.73;1567665;91;21073;-88
2021/06/01 09:53:27;;;;;;;15.13;6.40;;;;;;;12.03;100.00;100546.33;1565106;90;21580;-88
2021/06/01 09:55:55;;;;;;;16.30;5.72;;;;;;;12.03;100.00;100532.82;1625567;86;21172;-87
2021/06/01 09:58:36;;;;;;;20.55;6.20;;;;;;;12.11;100.00;100534.95;1620889;86;21132;-86
2021/06/01 10:01:09;;;;;;;15.50;6.37;;;;;;;12.19;100.00;100531.71;1621506;86;21049;-87
2021/06/01 10:03:50;;;;;;;15.80;6.83;;;;;;;12.16;100.00;100537.66;1621523;86;21839;-88
2021/06/01 10:06:16;;;;;;;20.40;6.50;;;;;;;12.21;100.00;100541.72;1628215;86;21097;-89
2021/06/01 10:08:49;;;;;;;17.37;6.20;;;;;;;12.15;100.00;100534.70;1627031;86;21017;-90
2021/06/01 10:11:16;;;;;;;15.32;5.60;;;;;;;12.12;100.00;100536.59;1622746;86;21112;-87
2021/06/01 10:13:43;;;;;;;18.73;6.33;;;;;;;12.08;100.00;100533.34;1607599;87;21141;-88
2021/06/01 10:16:16;;;;;;;19.05;5.83;;;;;;;12.19;100.00;100550.62;1618628;86;21054;-87
2021/06/01 10:18:44;;;;;;;19.80;5.65;;;;;;;12.09;100.00;100542.54;1625792;86;21644;-90
2021/06/01 10:23:50;;;;;;;14.93;6.30;;;;;;;12.07;100.00;100550.64;1596468;87;21071;-89
2021/06/01 10:26:15;;;;;;;23.38;6.75;;;;;;;12.11;100.00;100552.52;1622472;86;21189;-90
2021/06/01 10:28:47;;;;;;;10.38;3.80;;;;;;;12.08;100.00;100559.00;1621578;88;21074;-88
2021/06/01 10:31:17;;;;;;;12.85;4.75;;;;;;;11.87;100.00;100571.69;1629881;86;21995;-87
2021/06/01 10:33:59;;;;;;;14.18;5.20;;;;;;;11.81;100.00;100551.40;1625781;87;21141;-89
2021/06/01 10:50:40;;;;;;;13.20;5.53;;;;;;;11.74;100.00;100517.66;1621587;87;21085;-88
2021/06/01 11:04:04;;;;;;;10.05;4.80;;;;;;;11.82;100.00;100519.28;1480729;95;21691;-86
2021/06/01 11:06:53;;;;;;;9.33;4.85;;;;;;;11.76;100.00;100525.73;1480874;95;21714;-86
2021/06/01 11:09:47;;;;;;;9.13;5.00;;;;;;;11.79;100.00;100519.83;1461884;96;21670;-85
2021/06/01 11:12:20;;;;;;;11.20;4.75;;;;;;;11.85;100.00;100519.29;1462243;97;21215;-86
2021/06/01 11:14:49;;;;;;;8.85;3.80;;;;;;;11.87;100.00;100510.94;1458950;96;21150;-86
2021/06/01 11:17:16;;;;;;;13.38;4.10;;;;;;;11.83;100.00;100518.20;1458363;98;21171;-84
2021/06/01 11:19:56;;;;;;;9.45;3.90;;;;;;;11.87;100.00;100505.53;1459137;96;21156;-84
2021/06/01 11:22:58;;;;;;;6.53;3.52;;;;;;;11.89;100.00;100507.44;1443806;97;21142;-84
2021/06/01 11:33:33;;;;;;;11.68;4.40;;;;;;;12.22;100.00;100485.23;1448491;96;21083;-87
2021/06/01 11:36:04;;;;;;;9.80;4.17;;;;;;;12.36;100.00;100477.92;1443129;97;21182;-85
2021/06/01 11:38:50;;;;;;;9.73;4.20;;;;;;;12.26;100.00;100480.09;1454569;97;21162;-85
2021/06/01 11:43:54;;;;;;;6.05;2.87;;;;;;;12.30;100.00;100483.08;1399971;100;21113;-86
2021/06/01 11:46:33;;;;;;;8.40;3.55;;;;;;;12.05;100.00;100496.88;1415375;99;21096;-86
2021/06/01 11:51:46;;;;;;;6.87;3.10;;;;;;;12.03;100.00;100480.95;1480638;95;21216;-85
2021/06/01 11:54:16;;;;;;;6.22;2.95;;;;;;;11.97;100.00;100471.76;1490524;95;21072;-85
2021/06/01 11:57:12;;;;;;;3.87;2.27;;;;;;;12.05;100.00;100485.52;1488898;93;21136;-88
2021/06/01 12:05:30;;;;;;;4.30;2.00;;;;;;;11.79;100.00;100473.09;1564390;89;21177;-87
2021/06/01 12:13:48;;;;;;;4.50;2.27;;;;;;;11.68;100.00;100473.66;1498253;95;21097;-85
2021/06/01 12:18:53;;;;;;;3.45;2.42;;;;;;;11.65;100.00;100486.34;1476092;96;21190;-83
2021/06/01 12:21:32;;;;;;;4.67;2.45;;;;;;;11.59;100.00;100465.28;1492055;96;21247;-83
2021/06/01 12:24:19;;;;;;;5.22;2.35;;;;;;;11.63;100.00;100464.74;1492221;95;21609;-83
2021/06/01 12:43:56;;;;;;;6.28;2.40;;;;;;;11.45;100.00;100508.72;1591750;90;21007;-85
2021/06/01 13:23:37;;;;;;;13.75;5.95;;;;;;;11.00;100.00;100518.33;1512769;94;21249;-88
2021/06/01 13:46:24;;;;;;;7.70;4.62;;;;;;;10.87;100.00;100507.47;1508003;93;21673;-88
2021/06/01 14:01:33;;;;;;;12.10;5.50;;;;;;;11.16;100.00;100481.41;1549546;91;21173;-89
2021/06/01 14:31:27;;;;;;;5.75;3.30;;;;;;;10.79;100.00;100456.75;1591597;88;21070;-91
2021/06/01 14:36:48;;;;;;;8.88;4.10;;;;;;;10.77;100.00;100460.81;1610861;84;21076;-89
2021/06/01 14:39:27;;;;;;;7.97;3.80;;;;;;;10.79;100.00;100453.25;1696090;84;20980;-88
2021/06/01 15:53:14;;;;;;;4.20;2.40;;;;;;;10.42;100.00;100495.41;1655939;85;21128;-87
2021/06/01 16:23:07;;;;;;;2.17;1.60;;;;;;;10.26;100.00;100490.96;1703659;84;21195;-85
2021/06/01 16:42:06;;;;;;;2.30;1.70;;;;;;;10.17;100.00;100507.33;1701586;83;21077;-87
2021/06/01 17:06:08;;;;;;;3.30;2.50;;;;;;;10.16;100.00;100507.87;1584383;88;21252;-89
2021/06/01 17:11:20;;;;;;;4.12;2.95;;;;;;;10.14;100.00;100500.58;1584166;88;21050;-88
2021/06/01 17:14:00;;;;;;;7.30;3.12;;;;;;;10.13;100.00;100513.78;1568207;89;21108;-89
2021/06/01 17:16:48;;;;;;;5.65;3.33;;;;;;;10.11;100.00;100517.80;1547645;92;21116;-88
2021/06/01 17:35:43;;;;;;;9.15;3.67;;;;;;;10.24;100.00;100511.98;1484825;96;21129;-88
2021/06/01 17:38:10;;;;;;;6.15;3.60;;;;;;;10.29;100.00;100519.29;1525361;93;21023;-88
2021/06/01 17:40:39;;;;;;;5.75;3.60;;;;;;;10.30;100.00;100529.02;1538140;90;21249;-88
2021/06/01 17:43:09;;;;;;;4.97;2.70;;;;;;;10.23;100.00;100527.84;1572515;89;21711;-87
2021/06/01 17:45:40;;;;;;;6.53;2.83;;;;;;;10.21;100.00;100534.05;1509183;93;21185;-88
2021/06/01 17:48:09;;;;;;;7.03;3.55;;;;;;;10.27;100.00;100526.84;1507883;94;21110;-88
2021/06/01 17:50:36;;;;;;;7.17;3.50;;;;;;;10.21;100.00;100519.23;1511078;94;21681;-88
2021/06/01 17:53:04;;;;;;;6.45;3.47;;;;;;;10.27;100.00;100495.33;1480391;96;21199;-86
2021/06/01 17:55:33;;;;;;;5.95;2.90;;;;;;;10.27;100.00;100502.60;1480923;96;21149;-85
2021/06/01 17:58:01;;;;;;;7.25;2.98;;;;;;;10.31;100.00;100516.62;1485773;96;21127;-86
2021/06/01 18:00:28;;;;;;;5.12;2.80;;;;;;;10.24;100.00;100507.94;1480996;96;21200;-87
2021/06/01 18:02:55;;;;;;;4.87;2.80;;;;;;;10.27;100.00;100504.75;1504836;93;21063;-86
2021/06/01 18:05:26;;;;;;;6.53;2.80;;;;;;;10.28;100.00;100500.17;1526785;93;21190;-85
2021/06/01 18:08:05;;;;;;;6.95;2.95;;;;;;;10.26;100.00;100500.92;1577007;89;21080;-86